sensor_id;sensor_type;location;lat;lon;timestamp;pressure;altitude;pressure_sealevel;temperature;humidity
75650;BME280;64245;51.282;22.494;2023-05-10T00:01:38;99798.66;;;5.58;61.70
75650;BME280;64245;51.282;22.494;2023-05-10T00:04:04;99800.94;;;5.49;61.98
75650;BME280;64245;51.282;22.494;2023-05-10T00:06:29;99800.47;;;5.43;61.47
75650;BME280;64245;51.282;22.494;2023-05-10T00:08:55;99816.31;;;5.46;61.98
75650;BME280;64245;51.282;22.494;2023-05-10T00:11:21;99806.25;;;5.37;62.27
75650;BME280;64245;51.282;22.494;2023-05-10T00:13:47;99795.94;;;5.31;63.05
75650;BME280;64245;51.282;22.494;2023-05-10T00:16:12;99796.34;;;5.25;62.13
75650;BME280;64245;51.282;22.494;2023-05-10T00:18:39;99809.78;;;5.37;63.66
75650;BME280;64245;51.282;22.494;2023-05-10T00:21:05;99795.38;;;5.26;62.96
75650;BME280;64245;51.282;22.494;2023-05-10T00:23:30;99783.78;;;5.12;63.07
75650;BME280;64245;51.282;22.494;2023-05-10T00:25:56;99795.66;;;5.21;62.95
75650;BME280;64245;51.282;22.494;2023-05-10T00:28:22;99800.53;;;5.29;63.02
75650;BME280;64245;51.282;22.494;2023-05-10T00:30:47;99795.22;;;5.14;64.57
75650;BME280;64245;51.282;22.494;2023-05-10T00:33:16;99792.94;;;5.08;62.68
75650;BME280;64245;51.282;22.494;2023-05-10T00:35:41;99805.72;;;5.17;64.28
75650;BME280;64245;51.282;22.494;2023-05-10T00:38:07;99807.00;;;5.25;63.86
75650;BME280;64245;51.282;22.494;2023-05-10T00:40:35;99789.13;;;5.12;63.27
75650;BME280;64245;51.282;22.494;2023-05-10T00:43:01;99780.53;;;5.07;63.91
75650;BME280;64245;51.282;22.494;2023-05-10T00:45:27;99785.78;;;5.09;63.96
75650;BME280;64245;51.282;22.494;2023-05-10T00:47:52;99789.41;;;5.08;64.48
75650;BME280;64245;51.282;22.494;2023-05-10T00:50:23;99813.16;;;5.12;63.77
75650;BME280;64245;51.282;22.494;2023-05-10T00:52:49;99805.13;;;5.12;63.76
75650;BME280;64245;51.282;22.494;2023-05-10T00:55:15;99789.91;;;5.00;63.83
75650;BME280;64245;51.282;22.494;2023-05-10T00:57:41;99794.41;;;5.00;64.25
75650;BME280;64245;51.282;22.494;2023-05-10T01:00:07;99794.50;;;4.98;64.51
75650;BME280;64245;51.282;22.494;2023-05-10T01:02:47;99808.28;;;5.05;63.99
75650;BME280;64245;51.282;22.494;2023-05-10T01:05:12;99802.69;;;4.95;65.33
75650;BME280;64245;51.282;22.494;2023-05-10T01:07:39;99803.63;;;4.94;65.36
75650;BME280;64245;51.282;22.494;2023-05-10T01:10:08;99807.16;;;4.95;64.73
75650;BME280;64245;51.282;22.494;2023-05-10T01:12:37;99782.78;;;4.72;65.55
75650;BME280;64245;51.282;22.494;2023-05-10T01:15:07;99793.16;;;4.77;65.33
75650;BME280;64245;51.282;22.494;2023-05-10T01:17:35;99793.16;;;4.77;66.88
75650;BME280;64245;51.282;22.494;2023-05-10T01:20:03;99786.75;;;4.65;68.58
75650;BME280;64245;51.282;22.494;2023-05-10T01:23:00;99809.06;;;4.64;66.49
75650;BME280;64245;51.282;22.494;2023-05-10T01:28:16;99804.03;;;4.60;66.13
75650;BME280;64245;51.282;22.494;2023-05-10T01:33:47;99798.00;;;4.70;66.00
75650;BME280;64245;51.282;22.494;2023-05-10T01:38:51;99797.25;;;4.54;67.71
75650;BME280;64245;51.282;22.494;2023-05-10T01:47:01;99780.81;;;4.18;68.80
75650;BME280;64245;51.282;22.494;2023-05-10T01:49:32;99790.28;;;4.23;70.46
75650;BME280;64245;51.282;22.494;2023-05-10T01:52:05;99788.06;;;4.15;72.52
75650;BME280;64245;51.282;22.494;2023-05-10T01:54:33;99782.69;;;4.01;70.80
75650;BME280;64245;51.282;22.494;2023-05-10T01:57:04;99785.53;;;3.98;72.31
75650;BME280;64245;51.282;22.494;2023-05-10T01:59:34;99763.44;;;3.66;71.25
75650;BME280;64245;51.282;22.494;2023-05-10T02:02:06;99771.59;;;3.79;72.25
75650;BME280;64245;51.282;22.494;2023-05-10T02:04:35;99771.81;;;3.90;73.45
75650;BME280;64245;51.282;22.494;2023-05-10T02:07:03;99767.47;;;3.73;73.83
75650;BME280;64245;51.282;22.494;2023-05-10T02:09:32;99756.44;;;3.65;73.23
75650;BME280;64245;51.282;22.494;2023-05-10T02:12:00;99777.53;;;3.68;73.35
75650;BME280;64245;51.282;22.494;2023-05-10T02:14:30;99745.66;;;3.37;74.21
75650;BME280;64245;51.282;22.494;2023-05-10T02:16:58;99759.94;;;3.50;72.23
75650;BME280;64245;51.282;22.494;2023-05-10T02:19:26;99763.38;;;3.52;72.73
75650;BME280;64245;51.282;22.494;2023-05-10T02:21:55;99758.50;;;3.60;70.91
75650;BME280;64245;51.282;22.494;2023-05-10T02:24:22;99743.22;;;3.48;71.73
75650;BME280;64245;51.282;22.494;2023-05-10T02:26:51;99762.78;;;3.47;72.83
75650;BME280;64245;51.282;22.494;2023-05-10T02:29:19;99738.00;;;3.31;72.72
75650;BME280;64245;51.282;22.494;2023-05-10T02:31:45;99760.34;;;3.44;73.35
75650;BME280;64245;51.282;22.494;2023-05-10T02:34:13;99756.22;;;3.23;73.89
75650;BME280;64245;51.282;22.494;2023-05-10T02:36:39;99765.81;;;3.41;72.62
75650;BME280;64245;51.282;22.494;2023-05-10T02:39:07;99749.69;;;3.28;71.93
75650;BME280;64245;51.282;22.494;2023-05-10T02:41:40;99770.25;;;3.56;72.54
75650;BME280;64245;51.282;22.494;2023-05-10T02:44:07;99750.78;;;3.40;71.67
75650;BME280;64245;51.282;22.494;2023-05-10T02:46:33;99758.78;;;3.40;72.03
75650;BME280;64245;51.282;22.494;2023-05-10T02:49:00;99764.72;;;3.45;72.27
75650;BME280;64245;51.282;22.494;2023-05-10T02:51:29;99765.31;;;3.34;73.12
75650;BME280;64245;51.282;22.494;2023-05-10T02:54:00;99772.69;;;3.45;72.73
75650;BME280;64245;51.282;22.494;2023-05-10T02:56:33;99747.13;;;3.27;72.42
75650;BME280;64245;51.282;22.494;2023-05-10T02:59:00;99747.78;;;3.30;72.92
75650;BME280;64245;51.282;22.494;2023-05-10T03:01:25;99772.25;;;3.53;73.33
75650;BME280;64245;51.282;22.494;2023-05-10T03:03:51;99752.50;;;3.41;72.82
75650;BME280;64245;51.282;22.494;2023-05-10T03:06:16;99749.97;;;3.24;75.11
75650;BME280;64245;51.282;22.494;2023-05-10T03:08:43;99760.16;;;3.16;74.92
75650;BME280;64245;51.282;22.494;2023-05-10T03:11:28;99752.97;;;3.18;72.89
75650;BME280;64245;51.282;22.494;2023-05-10T03:16:47;99774.69;;;3.26;73.42
75650;BME280;64245;51.282;22.494;2023-05-10T03:19:24;99772.63;;;3.15;73.10
75650;BME280;64245;51.282;22.494;2023-05-10T03:21:52;99774.94;;;3.21;73.90
75650;BME280;64245;51.282;22.494;2023-05-10T03:24:21;99765.81;;;3.09;72.89
75650;BME280;64245;51.282;22.494;2023-05-10T03:26:48;99769.88;;;3.17;73.27
75650;BME280;64245;51.282;22.494;2023-05-10T03:29:15;99751.09;;;3.04;72.82
75650;BME280;64245;51.282;22.494;2023-05-10T03:31:41;99760.25;;;3.14;73.40
75650;BME280;64245;51.282;22.494;2023-05-10T03:34:07;99754.44;;;3.07;73.34
75650;BME280;64245;51.282;22.494;2023-05-10T03:36:32;99743.97;;;3.04;73.93
75650;BME280;64245;51.282;22.494;2023-05-10T03:38:58;99738.91;;;3.00;75.15
75650;BME280;64245;51.282;22.494;2023-05-10T03:41:24;99769.09;;;3.46;72.38
75650;BME280;64245;51.282;22.494;2023-05-10T03:43:51;99759.47;;;3.43;73.75
75650;BME280;64245;51.282;22.494;2023-05-10T03:46:17;99754.47;;;3.53;72.47
75650;BME280;64245;51.282;22.494;2023-05-10T03:48:42;99749.84;;;3.71;71.50
75650;BME280;64245;51.282;22.494;2023-05-10T03:51:08;99769.41;;;3.86;71.46
75650;BME280;64245;51.282;22.494;2023-05-10T03:53:34;99760.28;;;3.90;71.12
75650;BME280;64245;51.282;22.494;2023-05-10T03:55:59;99756.13;;;4.00;71.02
75650;BME280;64245;51.282;22.494;2023-05-10T03:58:25;99741.69;;;4.04;70.37
75650;BME280;64245;51.282;22.494;2023-05-10T04:00:51;99744.53;;;4.15;69.77
75650;BME280;64245;51.282;22.494;2023-05-10T04:03:17;99748.25;;;4.27;69.29
75650;BME280;64245;51.282;22.494;2023-05-10T04:05:42;99762.66;;;4.38;69.38
75650;BME280;64245;51.282;22.494;2023-05-10T04:08:08;99761.22;;;4.47;69.11
75650;BME280;64245;51.282;22.494;2023-05-10T04:10:34;99761.03;;;4.50;69.38
75650;BME280;64245;51.282;22.494;2023-05-10T04:13:00;99737.81;;;4.52;68.10
75650;BME280;64245;51.282;22.494;2023-05-10T04:15:26;99757.59;;;4.62;69.19
75650;BME280;64245;51.282;22.494;2023-05-10T04:17:51;99765.81;;;4.73;69.02
75650;BME280;64245;51.282;22.494;2023-05-10T04:20:17;99770.19;;;4.89;68.15
75650;BME280;64245;51.282;22.494;2023-05-10T04:22:43;99723.13;;;4.73;68.24
75650;BME280;64245;51.282;22.494;2023-05-10T04:25:08;99759.03;;;4.96;67.41
75650;BME280;64245;51.282;22.494;2023-05-10T04:27:35;99768.72;;;5.11;67.20
75650;BME280;64245;51.282;22.494;2023-05-10T04:30:00;99761.91;;;5.20;66.43
75650;BME280;64245;51.282;22.494;2023-05-10T04:32:26;99742.72;;;5.28;66.41
75650;BME280;64245;51.282;22.494;2023-05-10T04:34:52;99736.94;;;5.21;66.77
75650;BME280;64245;51.282;22.494;2023-05-10T04:37:18;99749.19;;;5.38;66.63
75650;BME280;64245;51.282;22.494;2023-05-10T04:39:45;99758.13;;;5.51;66.38
75650;BME280;64245;51.282;22.494;2023-05-10T04:42:10;99748.94;;;5.55;66.11
75650;BME280;64245;51.282;22.494;2023-05-10T04:44:36;99756.78;;;5.71;66.39
75650;BME280;64245;51.282;22.494;2023-05-10T04:47:02;99754.69;;;5.76;63.95
75650;BME280;64245;51.282;22.494;2023-05-10T04:49:29;99764.84;;;5.83;65.11
75650;BME280;64245;51.282;22.494;2023-05-10T04:51:55;99762.97;;;5.98;65.16
75650;BME280;64245;51.282;22.494;2023-05-10T04:54:21;99746.81;;;6.00;63.94
75650;BME280;64245;51.282;22.494;2023-05-10T04:56:47;99769.31;;;6.22;64.29
75650;BME280;64245;51.282;22.494;2023-05-10T04:59:12;99754.97;;;6.36;62.89
75650;BME280;64245;51.282;22.494;2023-05-10T05:01:39;99761.00;;;6.52;63.59
75650;BME280;64245;51.282;22.494;2023-05-10T05:04:05;99750.28;;;6.65;61.97
75650;BME280;64245;51.282;22.494;2023-05-10T05:06:30;99737.22;;;6.61;61.85
75650;BME280;64245;51.282;22.494;2023-05-10T05:08:56;99740.44;;;6.66;61.92
75650;BME280;64245;51.282;22.494;2023-05-10T05:11:22;99756.88;;;6.98;61.96
75650;BME280;64245;51.282;22.494;2023-05-10T05:13:47;99754.72;;;7.03;62.43
75650;BME280;64245;51.282;22.494;2023-05-10T05:16:13;99762.63;;;7.04;62.38
75650;BME280;64245;51.282;22.494;2023-05-10T05:18:39;99763.16;;;7.09;62.35
75650;BME280;64245;51.282;22.494;2023-05-10T05:21:17;99763.44;;;7.30;61.83
75650;BME280;64245;51.282;22.494;2023-05-10T05:23:43;99738.59;;;7.28;62.16
75650;BME280;64245;51.282;22.494;2023-05-10T05:26:09;99736.69;;;7.41;61.19
75650;BME280;64245;51.282;22.494;2023-05-10T05:28:36;99735.56;;;7.56;60.71
75650;BME280;64245;51.282;22.494;2023-05-10T05:31:06;99754.75;;;7.74;61.34
75650;BME280;64245;51.282;22.494;2023-05-10T05:33:33;99767.50;;;7.94;63.29
75650;BME280;64245;51.282;22.494;2023-05-10T05:36:02;99760.88;;;8.11;60.71
75650;BME280;64245;51.282;22.494;2023-05-10T05:38:28;99754.28;;;8.15;61.19
75650;BME280;64245;51.282;22.494;2023-05-10T05:40:54;99735.91;;;8.22;59.72
75650;BME280;64245;51.282;22.494;2023-05-10T05:43:20;99747.31;;;8.48;58.58
75650;BME280;64245;51.282;22.494;2023-05-10T05:45:46;99743.56;;;8.61;58.76
75650;BME280;64245;51.282;22.494;2023-05-10T05:48:11;99757.13;;;8.82;57.87
75650;BME280;64245;51.282;22.494;2023-05-10T05:50:37;99751.00;;;8.91;56.78
75650;BME280;64245;51.282;22.494;2023-05-10T05:53:03;99733.78;;;8.94;57.21
75650;BME280;64245;51.282;22.494;2023-05-10T05:55:28;99760.72;;;9.26;56.79
75650;BME280;64245;51.282;22.494;2023-05-10T05:57:55;99761.22;;;9.31;56.08
75650;BME280;64245;51.282;22.494;2023-05-10T06:00:20;99767.16;;;9.46;55.71
75650;BME280;64245;51.282;22.494;2023-05-10T06:02:47;99756.41;;;9.46;54.78
75650;BME280;64245;51.282;22.494;2023-05-10T06:05:13;99755.66;;;9.55;56.85
75650;BME280;64245;51.282;22.494;2023-05-10T06:07:39;99754.31;;;9.60;55.96
75650;BME280;64245;51.282;22.494;2023-05-10T06:10:08;99769.91;;;9.78;55.73
75650;BME280;64245;51.282;22.494;2023-05-10T06:12:34;99753.16;;;9.74;55.41
75650;BME280;64245;51.282;22.494;2023-05-10T06:15:00;99771.25;;;10.04;55.96
75650;BME280;64245;51.282;22.494;2023-05-10T06:17:25;99763.97;;;9.95;56.52
75650;BME280;64245;51.282;22.494;2023-05-10T06:19:51;99771.00;;;10.07;55.15
75650;BME280;64245;51.282;22.494;2023-05-10T06:22:17;99774.16;;;10.12;55.29
75650;BME280;64245;51.282;22.494;2023-05-10T06:24:43;99757.06;;;10.02;56.55
75650;BME280;64245;51.282;22.494;2023-05-10T06:27:09;99764.19;;;10.24;56.61
75650;BME280;64245;51.282;22.494;2023-05-10T06:29:34;99754.75;;;10.29;56.16
75650;BME280;64245;51.282;22.494;2023-05-10T06:32:00;99760.66;;;10.44;55.41
75650;BME280;64245;51.282;22.494;2023-05-10T06:34:25;99761.03;;;10.39;55.13
75650;BME280;64245;51.282;22.494;2023-05-10T06:36:51;99743.00;;;10.51;54.57
75650;BME280;64245;51.282;22.494;2023-05-10T06:39:17;99760.06;;;10.61;55.66
75650;BME280;64245;51.282;22.494;2023-05-10T06:41:43;99750.25;;;10.60;54.91
75650;BME280;64245;51.282;22.494;2023-05-10T06:44:08;99766.59;;;10.89;54.41
75650;BME280;64245;51.282;22.494;2023-05-10T06:46:34;99754.50;;;10.84;54.02
75650;BME280;64245;51.282;22.494;2023-05-10T06:49:00;99743.19;;;10.90;54.40
75650;BME280;64245;51.282;22.494;2023-05-10T06:51:26;99770.66;;;11.14;55.00
75650;BME280;64245;51.282;22.494;2023-05-10T06:53:51;99773.13;;;11.27;53.13
75650;BME280;64245;51.282;22.494;2023-05-10T06:56:17;99752.66;;;11.24;53.25
75650;BME280;64245;51.282;22.494;2023-05-10T06:58:42;99775.81;;;11.36;53.64
75650;BME280;64245;51.282;22.494;2023-05-10T07:01:08;99770.78;;;11.53;55.67
75650;BME280;64245;51.282;22.494;2023-05-10T07:03:34;99787.69;;;11.74;54.60
75650;BME280;64245;51.282;22.494;2023-05-10T07:06:03;99764.66;;;11.60;52.73
75650;BME280;64245;51.282;22.494;2023-05-10T07:08:30;99768.53;;;11.67;53.05
75650;BME280;64245;51.282;22.494;2023-05-10T07:11:03;99755.06;;;11.77;51.83
75650;BME280;64245;51.282;22.494;2023-05-10T07:13:30;99788.03;;;12.00;50.92
75650;BME280;64245;51.282;22.494;2023-05-10T07:15:58;99789.63;;;11.93;50.48
75650;BME280;64245;51.282;22.494;2023-05-10T07:18:24;99786.47;;;11.97;51.75
75650;BME280;64245;51.282;22.494;2023-05-10T07:20:50;99779.38;;;11.96;50.58
75650;BME280;64245;51.282;22.494;2023-05-10T07:23:16;99769.16;;;12.00;51.50
75650;BME280;64245;51.282;22.494;2023-05-10T07:25:47;99766.47;;;12.09;52.27
75650;BME280;64245;51.282;22.494;2023-05-10T07:28:14;99790.28;;;12.33;50.38
75650;BME280;64245;51.282;22.494;2023-05-10T07:30:40;99774.94;;;12.34;51.39
75650;BME280;64245;51.282;22.494;2023-05-10T07:33:06;99782.63;;;12.48;49.39
75650;BME280;64245;51.282;22.494;2023-05-10T07:35:34;99777.50;;;12.35;47.59
75650;BME280;64245;51.282;22.494;2023-05-10T07:37:59;99785.63;;;12.45;47.86
75650;BME280;64245;51.282;22.494;2023-05-10T07:40:25;99780.47;;;12.61;47.37
75650;BME280;64245;51.282;22.494;2023-05-10T07:42:51;99782.03;;;12.64;45.19
75650;BME280;64245;51.282;22.494;2023-05-10T07:45:17;99767.63;;;12.73;47.05
75650;BME280;64245;51.282;22.494;2023-05-10T07:47:43;99760.81;;;12.69;46.64
75650;BME280;64245;51.282;22.494;2023-05-10T07:50:09;99769.78;;;12.60;47.27
75650;BME280;64245;51.282;22.494;2023-05-10T07:52:34;99766.34;;;12.77;47.71
75650;BME280;64245;51.282;22.494;2023-05-10T07:55:00;99772.25;;;12.90;44.68
75650;BME280;64245;51.282;22.494;2023-05-10T07:57:25;99778.50;;;13.00;45.32
75650;BME280;64245;51.282;22.494;2023-05-10T07:59:51;99774.28;;;12.88;41.23
75650;BME280;64245;51.282;22.494;2023-05-10T08:02:17;99757.66;;;12.83;42.10
75650;BME280;64245;51.282;22.494;2023-05-10T08:04:42;99775.78;;;13.00;43.05
75650;BME280;64245;51.282;22.494;2023-05-10T08:07:08;99762.38;;;13.08;46.70
75650;BME280;64245;51.282;22.494;2023-05-10T08:09:33;99750.03;;;13.06;42.50
75650;BME280;64245;51.282;22.494;2023-05-10T08:11:59;99753.75;;;13.32;43.76
75650;BME280;64245;51.282;22.494;2023-05-10T08:14:28;99778.25;;;13.58;40.38
75650;BME280;64245;51.282;22.494;2023-05-10T08:16:53;99753.09;;;13.48;39.47
75650;BME280;64245;51.282;22.494;2023-05-10T08:19:19;99777.41;;;13.75;38.98
75650;BME280;64245;51.282;22.494;2023-05-10T08:21:46;99779.34;;;13.65;36.87
75650;BME280;64245;51.282;22.494;2023-05-10T08:24:12;99772.88;;;13.48;37.81
75650;BME280;64245;51.282;22.494;2023-05-10T08:26:38;99774.84;;;13.56;37.70
75650;BME280;64245;51.282;22.494;2023-05-10T08:29:04;99759.50;;;13.47;35.39
75650;BME280;64245;51.282;22.494;2023-05-10T08:31:29;99760.06;;;13.51;36.10
75650;BME280;64245;51.282;22.494;2023-05-10T08:33:55;99777.72;;;13.72;36.80
75650;BME280;64245;51.282;22.494;2023-05-10T08:36:21;99758.41;;;13.85;37.44
75650;BME280;64245;51.282;22.494;2023-05-10T08:38:50;99756.63;;;13.76;34.93
75650;BME280;64245;51.282;22.494;2023-05-10T08:41:20;99750.44;;;13.83;37.46
75650;BME280;64245;51.282;22.494;2023-05-10T08:43:47;99764.50;;;13.87;38.83
75650;BME280;64245;51.282;22.494;2023-05-10T08:46:17;99772.16;;;13.92;38.62
75650;BME280;64245;51.282;22.494;2023-05-10T08:48:47;99762.19;;;14.10;38.08
75650;BME280;64245;51.282;22.494;2023-05-10T08:51:15;99759.22;;;14.39;38.07
75650;BME280;64245;51.282;22.494;2023-05-10T08:53:43;99738.72;;;14.36;39.51
75650;BME280;64245;51.282;22.494;2023-05-10T08:56:09;99739.00;;;14.51;38.93
75650;BME280;64245;51.282;22.494;2023-05-10T08:58:37;99762.88;;;14.73;37.14
75650;BME280;64245;51.282;22.494;2023-05-10T09:01:03;99758.41;;;14.64;39.64
75650;BME280;64245;51.282;22.494;2023-05-10T09:03:30;99744.66;;;14.40;37.90
75650;BME280;64245;51.282;22.494;2023-05-10T09:05:56;99762.47;;;14.25;37.27
75650;BME280;64245;51.282;22.494;2023-05-10T09:08:23;99756.81;;;14.54;38.64
75650;BME280;64245;51.282;22.494;2023-05-10T09:10:51;99769.69;;;14.51;36.61
75650;BME280;64245;51.282;22.494;2023-05-10T09:13:17;99763.63;;;14.58;37.26
75650;BME280;64245;51.282;22.494;2023-05-10T09:15:44;99743.53;;;14.68;36.73
75650;BME280;64245;51.282;22.494;2023-05-10T09:18:11;99759.25;;;14.65;36.55
75650;BME280;64245;51.282;22.494;2023-05-10T09:20:37;99754.59;;;14.75;36.29
75650;BME280;64245;51.282;22.494;2023-05-10T09:23:02;99761.75;;;14.84;36.00
75650;BME280;64245;51.282;22.494;2023-05-10T09:25:28;99750.50;;;14.71;35.80
75650;BME280;64245;51.282;22.494;2023-05-10T09:27:54;99773.84;;;14.90;38.04
75650;BME280;64245;51.282;22.494;2023-05-10T09:30:28;99750.56;;;15.13;38.05
75650;BME280;64245;51.282;22.494;2023-05-10T09:32:55;99755.94;;;15.05;35.47
75650;BME280;64245;51.282;22.494;2023-05-10T09:35:26;99754.59;;;15.01;34.69
75650;BME280;64245;51.282;22.494;2023-05-10T09:37:54;99752.78;;;14.83;32.79
75650;BME280;64245;51.282;22.494;2023-05-10T09:40:21;99729.81;;;14.96;37.25
75650;BME280;64245;51.282;22.494;2023-05-10T09:42:58;99743.72;;;15.43;36.44
75650;BME280;64245;51.282;22.494;2023-05-10T09:45:28;99748.16;;;15.44;36.41
75650;BME280;64245;51.282;22.494;2023-05-10T09:47:55;99734.03;;;15.32;35.63
75650;BME280;64245;51.282;22.494;2023-05-10T09:50:21;99748.28;;;15.34;35.27
75650;BME280;64245;51.282;22.494;2023-05-10T09:53:01;99737.88;;;15.64;35.89
75650;BME280;64245;51.282;22.494;2023-05-10T09:55:40;99739.28;;;15.76;37.24
75650;BME280;64245;51.282;22.494;2023-05-10T09:58:06;99729.81;;;16.20;36.36
75650;BME280;64245;51.282;22.494;2023-05-10T10:00:37;99739.50;;;16.31;34.81
75650;BME280;64245;51.282;22.494;2023-05-10T10:03:03;99738.63;;;15.90;34.07
75650;BME280;64245;51.282;22.494;2023-05-10T10:05:31;99728.06;;;15.71;33.72
75650;BME280;64245;51.282;22.494;2023-05-10T10:07:58;99724.63;;;15.61;34.92
75650;BME280;64245;51.282;22.494;2023-05-10T10:10:25;99728.66;;;15.48;35.12
75650;BME280;64245;51.282;22.494;2023-05-10T10:12:52;99747.59;;;15.82;34.84
75650;BME280;64245;51.282;22.494;2023-05-10T10:15:18;99732.53;;;16.04;36.97
75650;BME280;64245;51.282;22.494;2023-05-10T10:17:45;99722.50;;;16.37;36.10
75650;BME280;64245;51.282;22.494;2023-05-10T10:20:11;99717.59;;;16.33;34.66
75650;BME280;64245;51.282;22.494;2023-05-10T10:22:38;99716.38;;;16.43;34.02
75650;BME280;64245;51.282;22.494;2023-05-10T10:25:04;99726.06;;;16.70;32.16
75650;BME280;64245;51.282;22.494;2023-05-10T10:35:36;99701.28;;;16.33;35.78
75650;BME280;64245;51.282;22.494;2023-05-10T10:38:02;99719.25;;;16.74;34.65
75650;BME280;64245;51.282;22.494;2023-05-10T10:40:33;99718.75;;;17.18;34.16
75650;BME280;64245;51.282;22.494;2023-05-10T10:43:24;99703.63;;;17.15;33.81
75650;BME280;64245;51.282;22.494;2023-05-10T10:48:35;99698.94;;;17.94;34.03
75650;BME280;64245;51.282;22.494;2023-05-10T10:51:01;99683.28;;;17.96;29.63
75650;BME280;64245;51.282;22.494;2023-05-10T10:53:27;99661.47;;;18.48;32.37
75650;BME280;64245;51.282;22.494;2023-05-10T10:56:22;99662.84;;;19.47;31.17
75650;BME280;64245;51.282;22.494;2023-05-10T10:58:49;99682.63;;;19.13;30.61
75650;BME280;64245;51.282;22.494;2023-05-10T11:01:18;99675.72;;;19.32;29.49
75650;BME280;64245;51.282;22.494;2023-05-10T11:06:33;99689.53;;;18.42;30.07
75650;BME280;64245;51.282;22.494;2023-05-10T11:09:04;99685.53;;;18.68;29.49
75650;BME280;64245;51.282;22.494;2023-05-10T11:11:31;99655.25;;;18.92;28.92
75650;BME280;64245;51.282;22.494;2023-05-10T11:14:03;99662.00;;;19.11;29.24
75650;BME280;64245;51.282;22.494;2023-05-10T11:16:40;99672.53;;;19.14;29.80
75650;BME280;64245;51.282;22.494;2023-05-10T11:19:08;99656.75;;;19.45;29.56
75650;BME280;64245;51.282;22.494;2023-05-10T11:21:51;99664.34;;;19.64;30.37
75650;BME280;64245;51.282;22.494;2023-05-10T11:24:19;99665.59;;;19.47;30.19
75650;BME280;64245;51.282;22.494;2023-05-10T11:26:45;99653.19;;;20.30;28.24
75650;BME280;64245;51.282;22.494;2023-05-10T11:29:13;99669.59;;;20.30;28.80
75650;BME280;64245;51.282;22.494;2023-05-10T11:31:45;99658.09;;;20.13;26.63
75650;BME280;64245;51.282;22.494;2023-05-10T11:34:26;99659.22;;;19.76;26.10
75650;BME280;64245;51.282;22.494;2023-05-10T11:36:55;99670.38;;;20.24;28.56
75650;BME280;64245;51.282;22.494;2023-05-10T11:39:28;99657.50;;;19.54;27.67
75650;BME280;64245;51.282;22.494;2023-05-10T11:41:54;99656.97;;;19.29;27.14
75650;BME280;64245;51.282;22.494;2023-05-10T11:44:20;99660.28;;;20.24;26.06
75650;BME280;64245;51.282;22.494;2023-05-10T11:46:46;99652.13;;;20.52;26.15
75650;BME280;64245;51.282;22.494;2023-05-10T11:49:11;99663.78;;;20.12;27.04
75650;BME280;64245;51.282;22.494;2023-05-10T11:51:38;99661.78;;;20.48;27.16
75650;BME280;64245;51.282;22.494;2023-05-10T11:54:09;99663.66;;;21.64;26.40
75650;BME280;64245;51.282;22.494;2023-05-10T11:56:36;99660.81;;;21.31;27.06
75650;BME280;64245;51.282;22.494;2023-05-10T11:59:03;99653.66;;;22.11;25.76
75650;BME280;64245;51.282;22.494;2023-05-10T12:01:29;99639.94;;;22.11;25.08
75650;BME280;64245;51.282;22.494;2023-05-10T12:03:56;99646.69;;;21.28;25.56
75650;BME280;64245;51.282;22.494;2023-05-10T12:06:30;99616.09;;;22.18;26.08
75650;BME280;64245;51.282;22.494;2023-05-10T12:08:57;99633.06;;;21.48;23.29
75650;BME280;64245;51.282;22.494;2023-05-10T12:11:27;99639.06;;;21.23;23.55
75650;BME280;64245;51.282;22.494;2023-05-10T12:13:54;99633.34;;;21.86;26.12
75650;BME280;64245;51.282;22.494;2023-05-10T12:16:21;99648.94;;;21.79;25.52
75650;BME280;64245;51.282;22.494;2023-05-10T12:18:56;99659.88;;;21.65;23.69
75650;BME280;64245;51.282;22.494;2023-05-10T12:21:22;99630.38;;;21.81;21.91
75650;BME280;64245;51.282;22.494;2023-05-10T12:23:53;99647.53;;;22.02;23.92
75650;BME280;64245;51.282;22.494;2023-05-10T12:26:24;99650.63;;;21.80;23.72
75650;BME280;64245;51.282;22.494;2023-05-10T12:29:12;99629.69;;;21.04;25.32
75650;BME280;64245;51.282;22.494;2023-05-10T12:31:54;99619.69;;;22.32;25.05
75650;BME280;64245;51.282;22.494;2023-05-10T12:36:53;99640.53;;;22.53;23.68
75650;BME280;64245;51.282;22.494;2023-05-10T12:39:19;99616.88;;;22.85;23.61
75650;BME280;64245;51.282;22.494;2023-05-10T12:41:45;99615.16;;;21.65;23.12
75650;BME280;64245;51.282;22.494;2023-05-10T12:44:10;99630.19;;;22.61;25.36
75650;BME280;64245;51.282;22.494;2023-05-10T12:46:36;99626.56;;;22.74;23.77
75650;BME280;64245;51.282;22.494;2023-05-10T12:49:02;99617.34;;;22.42;22.63
75650;BME280;64245;51.282;22.494;2023-05-10T12:51:27;99613.28;;;22.84;23.05
75650;BME280;64245;51.282;22.494;2023-05-10T12:53:53;99622.44;;;23.16;23.02
75650;BME280;64245;51.282;22.494;2023-05-10T12:56:19;99623.44;;;22.64;21.50
75650;BME280;64245;51.282;22.494;2023-05-10T12:58:45;99632.53;;;22.38;22.72
75650;BME280;64245;51.282;22.494;2023-05-10T13:01:14;99617.94;;;22.64;22.49
75650;BME280;64245;51.282;22.494;2023-05-10T13:03:40;99617.72;;;23.30;21.96
75650;BME280;64245;51.282;22.494;2023-05-10T13:06:06;99589.84;;;22.62;24.25
75650;BME280;64245;51.282;22.494;2023-05-10T13:08:32;99611.13;;;23.44;24.03
75650;BME280;64245;51.282;22.494;2023-05-10T13:11:02;99608.22;;;22.68;21.27
75650;BME280;64245;51.282;22.494;2023-05-10T13:13:28;99587.22;;;23.06;23.43
75650;BME280;64245;51.282;22.494;2023-05-10T13:15:54;99602.97;;;23.24;22.19
75650;BME280;64245;51.282;22.494;2023-05-10T13:18:19;99607.16;;;22.82;23.58
75650;BME280;64245;51.282;22.494;2023-05-10T13:20:45;99604.94;;;23.87;22.33
75650;BME280;64245;51.282;22.494;2023-05-10T13:23:11;99605.63;;;22.93;21.73
75650;BME280;64245;51.282;22.494;2023-05-10T13:25:37;99604.06;;;23.17;21.59
75650;BME280;64245;51.282;22.494;2023-05-10T13:28:03;99590.81;;;23.07;21.46
75650;BME280;64245;51.282;22.494;2023-05-10T13:30:28;99573.00;;;23.54;22.50